createdAt,value
2022-08-12T00:00:01.461Z,98373.84
2022-08-12T00:02:48.060Z,98356.19
2022-08-12T00:05:35.292Z,98362.78
2022-08-12T00:08:28.732Z,98353.38
2022-08-12T00:11:22.984Z,98360.69
2022-08-12T00:14:08.564Z,98374.75
2022-08-12T00:16:55.678Z,98367.25
2022-08-12T00:19:41.268Z,98369.25
2022-08-12T00:22:28.554Z,98380.63
2022-08-12T00:25:21.556Z,98371.84
2022-08-12T00:28:27.154Z,98383.16
2022-08-12T00:31:13.098Z,98364.50
2022-08-12T00:33:58.216Z,98375.25
2022-08-12T00:36:50.271Z,98373.84
2022-08-12T00:39:36.292Z,98365.53
2022-08-12T00:42:10.907Z,98347.28
2022-08-12T00:44:45.555Z,98382.41
2022-08-12T00:47:24.018Z,98365.75
2022-08-12T00:49:53.977Z,98360.47
2022-08-12T00:52:22.504Z,98381.69
2022-08-12T00:54:58.747Z,98368.03
2022-08-12T00:57:37.774Z,98374.94
2022-08-12T01:00:11.585Z,98364.09
2022-08-12T01:02:47.139Z,98380.16
2022-08-12T01:05:35.904Z,98363.00
2022-08-12T01:08:22.064Z,98350.78
2022-08-12T01:11:08.606Z,98357.75
2022-08-12T01:13:41.023Z,98359.72
2022-08-12T01:16:09.473Z,98376.53
2022-08-12T01:18:38.917Z,98336.34
2022-08-12T01:21:39.556Z,98358.81
2022-08-12T01:24:31.904Z,98342.47
2022-08-12T01:27:01.447Z,98363.00
2022-08-12T01:29:32.681Z,98329.81
2022-08-12T01:32:05.534Z,98351.66
2022-08-12T01:34:39.434Z,98351.09
2022-08-12T01:37:08.839Z,98351.63
2022-08-12T01:40:34.535Z,98347.75
2022-08-12T01:42:34.149Z,98306.81
2022-08-12T01:45:02.483Z,98318.09
2022-08-12T01:47:35.524Z,98336.59
2022-08-12T01:50:17.355Z,98342.63
2022-08-12T01:53:11.337Z,98334.38
2022-08-12T01:55:41.995Z,98340.31
2022-08-12T01:58:18.829Z,98337.06
2022-08-12T02:00:59.158Z,98319.88
2022-08-12T02:04:21.469Z,98333.72
2022-08-12T02:07:31.677Z,98327.34
2022-08-12T02:11:01.467Z,98332.00
2022-08-12T02:13:49.140Z,98306.59
2022-08-12T02:16:31.863Z,98322.69
2022-08-12T02:19:22.898Z,98298.59
2022-08-12T02:22:28.267Z,98323.63
2022-08-12T02:25:18.667Z,98310.66
2022-08-12T02:27:48.572Z,98329.44
2022-08-12T02:30:19.429Z,98313.84
2022-08-12T02:32:48.832Z,98302.25
2022-08-12T02:35:21.108Z,98310.78
2022-08-12T02:37:50.073Z,98331.63
2022-08-12T02:40:18.239Z,98325.91
2022-08-12T02:42:53.896Z,98298.78
2022-08-12T02:45:53.623Z,98333.31
2022-08-12T02:48:27.262Z,98294.91
2022-08-12T02:50:58.397Z,98300.81
2022-08-12T02:53:26.963Z,98310.03
2022-08-12T02:55:54.265Z,98319.53
2022-08-12T02:58:21.050Z,98335.72
2022-08-12T03:01:01.657Z,98325.09
2022-08-12T03:03:32.416Z,98311.19
2022-08-12T03:06:01.960Z,98304.19
2022-08-12T03:08:33.122Z,98344.56
2022-08-12T03:11:19.696Z,98342.97
2022-08-12T03:13:52.071Z,98322.22
2022-08-12T03:16:20.942Z,98341.78
2022-08-12T03:18:49.534Z,98338.72
2022-08-12T03:21:53.063Z,98317.22
2022-08-12T03:24:09.007Z,98352.34
2022-08-12T03:26:36.958Z,98354.53
2022-08-12T03:29:07.601Z,98357.25
2022-08-12T03:31:34.615Z,98357.94
2022-08-12T03:34:12.400Z,98358.09
2022-08-12T03:36:41.685Z,98346.13
2022-08-12T03:39:18.537Z,98360.03
2022-08-12T03:42:06.975Z,98370.25
2022-08-12T03:45:04.428Z,98370.06
2022-08-12T03:47:49.759Z,98374.66
2022-08-12T03:50:35.782Z,98359.38
2022-08-12T03:53:24.680Z,98337.91
2022-08-12T03:56:10.394Z,98359.78
2022-08-12T03:58:56.562Z,98386.28
2022-08-12T04:01:23.569Z,98368.06
2022-08-12T04:03:53.462Z,98368.16
2022-08-12T04:06:35.393Z,98388.13
2022-08-12T04:09:16.279Z,98362.97
2022-08-12T04:12:03.368Z,98398.41
2022-08-12T04:14:30.478Z,98369.16
2022-08-12T04:16:57.908Z,98396.13
2022-08-12T04:19:26.235Z,98394.91
2022-08-12T04:22:01.821Z,98382.03
2022-08-12T04:24:37.992Z,98399.09
2022-08-12T04:27:09.904Z,98396.28
2022-08-12T04:30:30.138Z,98388.47
2022-08-12T04:32:25.990Z,98365.59
2022-08-12T04:34:53.333Z,98392.38
2022-08-12T04:37:20.232Z,98378.16
2022-08-12T04:39:47.379Z,98377.78
2022-08-12T04:42:14.450Z,98386.25
2022-08-12T04:44:42.223Z,98381.25
2022-08-12T04:47:17.110Z,98380.03
2022-08-12T04:49:48.314Z,98383.28
2022-08-12T04:52:15.228Z,98355.09
2022-08-12T04:54:43.940Z,98378.25
2022-08-12T04:57:10.919Z,98379.31
2022-08-12T04:59:47.329Z,98389.38
2022-08-12T05:02:22.854Z,98370.38
2022-08-12T05:05:00.631Z,98361.44
2022-08-12T05:07:27.767Z,98371.97
2022-08-12T05:10:00.337Z,98390.94
2022-08-12T05:12:36.121Z,98393.31
2022-08-12T05:15:27.502Z,98366.88
2022-08-12T05:17:51.977Z,98377.00
2022-08-12T05:20:21.107Z,98373.59
2022-08-12T05:22:48.025Z,98391.97
2022-08-12T05:25:17.772Z,98388.91
2022-08-12T05:27:55.444Z,98372.84
2022-08-12T05:30:31.042Z,98395.63
2022-08-12T05:33:00.291Z,98382.97
2022-08-12T05:35:28.039Z,98380.91
2022-08-12T05:38:14.902Z,98387.63
2022-08-12T05:40:42.154Z,98377.03
2022-08-12T05:43:09.062Z,98384.66
2022-08-12T05:45:35.790Z,98388.47
2022-08-12T05:48:02.812Z,98391.22
2022-08-12T05:50:29.633Z,98403.53
2022-08-12T05:52:56.413Z,98405.72
2022-08-12T05:55:25.819Z,98396.47
2022-08-12T05:57:56.179Z,98399.59
2022-08-12T06:00:25.909Z,98382.56
2022-08-12T06:03:01.457Z,98396.06
2022-08-12T06:05:28.975Z,98408.88
2022-08-12T06:08:01.284Z,98389.34
2022-08-12T06:10:32.171Z,98401.38
2022-08-12T06:13:04.138Z,98408.22
2022-08-12T06:15:32.120Z,98415.41
2022-08-12T06:18:16.248Z,98405.00
2022-08-12T06:20:43.942Z,98408.59
2022-08-12T06:23:11.863Z,98384.28
2022-08-12T06:25:39.110Z,98384.09
2022-08-12T06:28:17.613Z,98402.78
2022-08-12T06:30:57.319Z,98403.06
2022-08-12T06:33:55.465Z,98398.56
2022-08-12T06:36:29.340Z,98388.56
2022-08-12T06:38:56.858Z,98395.66
2022-08-12T06:42:05.203Z,98390.09
2022-08-12T06:44:28.853Z,98399.50
2022-08-12T06:46:56.882Z,98358.19
2022-08-12T06:49:25.455Z,98399.78
2022-08-12T06:51:56.367Z,98384.31
2022-08-12T06:54:31.359Z,98392.16
2022-08-12T06:57:05.406Z,98360.09
2022-08-12T06:59:46.724Z,98376.13
2022-08-12T07:02:13.820Z,98365.34
2022-08-12T07:04:40.681Z,98372.44
2022-08-12T07:07:10.972Z,98374.75
2022-08-12T07:10:06.032Z,98402.03
2022-08-12T07:12:27.914Z,98381.66
2022-08-12T07:14:58.999Z,98364.91
2022-08-12T07:17:31.661Z,98377.38
2022-08-12T07:20:04.015Z,98367.38
2022-08-12T07:22:31.351Z,98359.38
2022-08-12T07:25:16.860Z,98349.28
2022-08-12T07:27:44.214Z,98367.59
2022-08-12T07:30:11.637Z,98382.53
2022-08-12T07:32:38.474Z,98353.03
2022-08-12T07:35:05.611Z,98380.44
2022-08-12T07:37:33.621Z,98347.03
2022-08-12T07:40:01.301Z,98380.94
2022-08-12T07:42:29.688Z,98362.00
2022-08-12T07:44:56.865Z,98367.16
2022-08-12T07:47:24.382Z,98348.63
2022-08-12T07:50:03.603Z,98370.97
2022-08-12T07:52:33.953Z,98360.72
2022-08-12T07:55:01.140Z,98346.41
2022-08-12T07:57:27.856Z,98360.75
2022-08-12T07:59:55.943Z,98352.22
2022-08-12T08:02:27.134Z,98338.44
2022-08-12T08:04:57.366Z,98353.53
2022-08-12T08:07:30.864Z,98327.03
2022-08-12T08:10:02.338Z,98331.22
2022-08-12T08:12:48.348Z,98337.00
2022-08-12T08:15:16.088Z,98332.28
2022-08-12T08:18:04.529Z,98352.06
2022-08-12T08:20:43.235Z,98347.56
2022-08-12T08:23:19.425Z,98328.81
2022-08-12T08:25:46.346Z,98319.50
2022-08-12T08:28:19.610Z,98350.94
2022-08-12T08:30:47.906Z,98344.88
2022-08-12T08:33:23.525Z,98335.53
2022-08-12T08:36:05.253Z,98325.09
2022-08-12T08:38:34.854Z,98324.16
2022-08-12T08:42:18.802Z,98330.47
2022-08-12T08:44:13.373Z,98299.09
2022-08-12T08:46:41.418Z,98312.28
2022-08-12T08:49:08.657Z,98325.22
2022-08-12T08:51:36.526Z,98321.22
2022-08-12T08:54:03.469Z,98301.38
2022-08-12T08:56:30.542Z,98301.72
2022-08-12T08:59:00.633Z,98300.41
2022-08-12T09:01:37.441Z,98305.91
2022-08-12T09:05:09.146Z,98317.25
2022-08-12T09:12:54.562Z,98292.53
2022-08-12T09:18:14.433Z,98292.94
2022-08-12T09:20:42.882Z,98304.78
2022-08-12T09:23:58.695Z,98307.25
2022-08-12T09:26:04.324Z,98275.38
2022-08-12T09:32:04.112Z,98293.84
2022-08-12T09:34:26.053Z,98285.41
2022-08-12T09:37:01.205Z,98285.09
2022-08-12T09:40:01.743Z,98270.94
2022-08-12T09:42:43.992Z,98271.44
2022-08-12T09:45:23.312Z,98266.66
2022-08-12T09:47:58.835Z,98284.91
2022-08-12T09:50:27.116Z,98265.88
2022-08-12T09:53:29.526Z,98279.28
2022-08-12T09:58:59.696Z,98259.13
2022-08-12T10:01:35.470Z,98277.69
2022-08-12T10:04:19.446Z,98253.09
2022-08-12T10:06:55.316Z,98251.31
2022-08-12T10:09:56.890Z,98255.59
2022-08-12T10:12:33.109Z,98269.19
2022-08-12T10:15:02.079Z,98252.50
2022-08-12T10:17:29.002Z,98258.09
2022-08-12T10:19:55.779Z,98256.09
2022-08-12T10:22:40.084Z,98230.66
2022-08-12T10:26:34.420Z,98250.34
2022-08-12T10:28:39.029Z,98268.44
2022-08-12T10:31:06.669Z,98256.13
2022-08-12T10:34:04.891Z,98260.06
2022-08-12T10:36:40.893Z,98259.41
2022-08-12T10:39:59.992Z,98251.56
2022-08-12T10:42:29.258Z,98248.06
2022-08-12T10:45:01.196Z,98220.78
2022-08-12T10:48:07.862Z,98241.28
2022-08-12T10:50:32.617Z,98218.53
2022-08-12T10:53:11.241Z,98220.63
2022-08-12T10:55:47.373Z,98229.22
2022-08-12T10:58:27.830Z,98237.44
2022-08-12T11:01:49.062Z,98223.88
2022-08-12T11:04:26.122Z,98225.78
2022-08-12T11:07:06.339Z,98201.50
2022-08-12T11:09:51.411Z,98197.84
2022-08-12T11:12:55.019Z,98194.63
2022-08-12T11:14:59.323Z,98188.13
2022-08-12T11:17:43.541Z,98185.59
2022-08-12T11:20:15.305Z,98179.00
2022-08-12T11:22:42.544Z,98187.22
2022-08-12T11:25:25.033Z,98207.88
2022-08-12T11:28:13.397Z,98191.94
2022-08-12T11:30:40.708Z,98203.63
2022-08-12T11:33:12.120Z,98194.44
2022-08-12T11:35:54.054Z,98168.78
2022-08-12T11:38:24.365Z,98173.63
2022-08-12T11:40:51.844Z,98172.28
2022-08-12T11:43:20.465Z,98168.84
2022-08-12T11:45:52.913Z,98170.59
2022-08-12T11:48:20.568Z,98163.53
2022-08-12T11:50:54.219Z,98177.59
2022-08-12T11:53:57.302Z,98147.84
2022-08-12T11:56:11.481Z,98151.84
2022-08-12T12:01:02.731Z,98145.84
2022-08-12T12:02:01.350Z,98154.41
2022-08-12T12:04:11.812Z,98143.25
2022-08-12T12:06:38.659Z,98134.75
2022-08-12T12:09:08.017Z,98136.38
2022-08-12T12:11:49.052Z,98150.50
2022-08-12T12:14:17.884Z,98128.88
2022-08-12T12:16:48.260Z,98133.81
2022-08-12T12:19:17.841Z,98126.03
2022-08-12T12:21:48.361Z,98116.34
2022-08-12T12:24:22.141Z,98130.06
2022-08-12T12:27:00.195Z,98132.31
2022-08-12T12:30:13.867Z,98113.50
2022-08-12T12:32:18.352Z,98123.19
2022-08-12T12:35:14.404Z,98110.69
2022-08-12T12:38:03.485Z,98108.06
2022-08-12T12:40:21.539Z,98102.22
2022-08-12T12:42:57.723Z,98103.47
2022-08-12T12:45:28.358Z,98098.38
2022-08-12T12:48:02.635Z,98098.25
2022-08-12T12:50:45.011Z,98114.13
2022-08-12T12:54:06.949Z,98106.75
2022-08-12T12:56:13.611Z,98106.41
2022-08-12T12:58:40.385Z,98093.91
2022-08-12T13:01:26.891Z,98096.84
2022-08-12T13:04:02.383Z,98094.56
2022-08-12T13:06:30.937Z,98108.03
2022-08-12T13:09:03.434Z,98106.72
2022-08-12T13:11:41.213Z,98084.28
2022-08-12T13:14:13.029Z,98100.53
2022-08-12T13:16:55.372Z,98098.41
2022-08-12T13:19:26.071Z,98068.03
2022-08-12T13:22:20.402Z,98093.78
2022-08-12T13:24:55.008Z,98091.84
2022-08-12T13:27:23.259Z,98074.09
2022-08-12T13:30:00.839Z,98066.78
2022-08-12T13:32:41.487Z,98077.31
2022-08-12T13:35:20.419Z,98061.75
2022-08-12T13:37:57.639Z,98062.44
2022-08-12T13:40:27.392Z,98090.38
2022-08-12T13:42:59.066Z,98072.94
2022-08-12T13:45:29.126Z,98066.22
2022-08-12T13:48:00.366Z,98089.66
2022-08-12T13:50:38.817Z,98084.69
2022-08-12T13:53:24.669Z,98095.66
2022-08-12T13:55:59.298Z,98074.59
2022-08-12T13:58:26.694Z,98039.09
2022-08-12T14:00:54.711Z,98075.00
2022-08-12T14:03:28.706Z,98085.81
2022-08-12T14:06:15.334Z,98075.09
2022-08-12T14:08:43.776Z,98053.59
2022-08-12T14:11:12.435Z,98065.88
2022-08-12T14:14:03.576Z,98052.06
2022-08-12T14:16:38.213Z,98051.59
2022-08-12T14:19:21.785Z,98034.78
2022-08-12T14:22:00.792Z,98049.16
2022-08-12T14:24:40.450Z,98053.03
2022-08-12T14:27:10.280Z,98052.03
2022-08-12T14:30:04.592Z,98021.28
2022-08-12T14:32:35.596Z,98044.97
2022-08-12T14:35:09.006Z,98058.53
2022-08-12T14:37:56.407Z,98057.03
2022-08-12T14:40:30.055Z,98030.59
2022-08-12T14:42:58.401Z,98018.94
2022-08-12T14:45:44.874Z,98040.56
2022-08-12T14:48:13.654Z,98018.09
2022-08-12T14:51:09.679Z,98035.16
2022-08-12T14:59:57.305Z,98021.16
2022-08-12T15:02:20.926Z,98014.22
2022-08-12T15:05:03.878Z,98008.91
2022-08-12T15:07:34.307Z,98005.59
2022-08-12T15:10:31.305Z,98018.22
2022-08-12T15:12:59.730Z,98038.66
2022-08-12T15:15:28.270Z,98029.91
2022-08-12T15:18:02.176Z,98013.66
2022-08-12T15:20:37.301Z,98007.72
2022-08-12T15:23:18.023Z,98035.50
2022-08-12T15:25:48.891Z,98018.81
2022-08-12T15:28:24.080Z,98001.19
2022-08-12T15:30:54.877Z,98008.09
2022-08-12T15:33:25.311Z,97991.75
2022-08-12T15:36:19.549Z,98009.19
2022-08-12T15:39:04.154Z,98007.06
2022-08-12T15:41:49.835Z,97998.97
2022-08-12T15:44:41.590Z,97999.09
2022-08-12T15:47:05.208Z,97998.47
2022-08-12T15:49:42.960Z,98023.00
2022-08-12T15:52:10.215Z,98010.78
2022-08-12T15:54:53.948Z,98031.34
2022-08-12T15:57:25.366Z,98007.28
2022-08-12T16:00:06.723Z,98004.66
2022-08-12T16:02:47.380Z,98031.56
2022-08-12T16:06:13.249Z,98034.06
2022-08-12T16:08:17.250Z,97998.88
2022-08-12T16:10:45.596Z,98002.72
2022-08-12T16:13:16.212Z,98023.97
2022-08-12T16:16:01.702Z,98026.19
2022-08-12T16:18:31.486Z,98024.41
2022-08-12T16:20:58.343Z,97992.16
2022-08-12T16:23:51.293Z,97991.34
2022-08-12T16:26:15.080Z,97995.38
2022-08-12T16:28:43.227Z,98004.09
2022-08-12T16:31:14.380Z,98007.03
2022-08-12T16:33:58.620Z,98014.19
2022-08-12T16:36:27.124Z,98009.59
2022-08-12T16:38:53.828Z,98003.75
2022-08-12T16:41:22.537Z,97998.88
2022-08-12T16:43:50.546Z,98008.53
2022-08-12T16:46:32.301Z,98016.34
2022-08-12T16:49:04.115Z,98004.84
2022-08-12T16:51:40.469Z,98034.34
2022-08-12T16:54:15.982Z,98032.28
2022-08-12T16:56:55.306Z,98007.81
2022-08-12T16:59:30.821Z,97999.13
2022-08-12T17:02:31.635Z,97999.06
2022-08-12T17:05:07.421Z,98000.19
2022-08-12T17:07:43.422Z,98031.53
2022-08-12T17:10:18.196Z,98031.59
2022-08-12T17:12:45.385Z,98022.97
2022-08-12T17:15:50.682Z,97995.41
2022-08-12T17:18:39.055Z,98002.59
2022-08-12T17:20:49.315Z,98024.44
2022-08-12T17:23:18.085Z,98034.81
2022-08-12T17:25:53.038Z,98040.41
2022-08-12T17:28:22.520Z,98037.69
2022-08-12T17:30:57.438Z,98021.34
2022-08-12T17:33:26.971Z,98048.13
2022-08-12T17:35:58.654Z,98015.13
2022-08-12T17:38:25.383Z,98016.84
2022-08-12T17:40:54.532Z,98001.47
2022-08-12T17:43:56.247Z,98031.38
2022-08-12T17:46:12.955Z,98020.56
2022-08-12T17:48:54.812Z,98006.66
2022-08-12T17:51:24.545Z,98002.03
2022-08-12T17:54:10.543Z,98037.56
2022-08-12T17:56:43.209Z,98059.38
2022-08-12T17:59:12.301Z,98059.06
2022-08-12T18:01:43.252Z,98059.06
2022-08-12T18:04:21.943Z,98056.28
2022-08-12T18:06:51.945Z,98056.00
2022-08-12T18:09:21.240Z,98048.09
2022-08-12T18:12:08.236Z,98015.56
2022-08-12T18:14:36.917Z,98047.03
2022-08-12T18:17:08.213Z,98065.13
2022-08-12T18:20:05.421Z,98041.47
2022-08-12T18:22:30.490Z,98067.53
2022-08-12T18:25:02.735Z,98070.09
2022-08-12T18:27:43.700Z,98055.22
2022-08-12T18:30:16.400Z,98024.44
2022-08-12T18:32:58.275Z,98067.66
2022-08-12T18:35:29.981Z,98076.72
2022-08-12T18:38:16.734Z,98068.25
2022-08-12T18:41:04.152Z,98084.69
2022-08-12T18:43:38.994Z,98075.94
2022-08-12T18:46:27.512Z,98070.72
2022-08-12T18:48:57.950Z,98074.59
2022-08-12T18:52:02.263Z,98094.50
2022-08-12T18:54:36.399Z,98074.75
2022-08-12T18:57:20.023Z,98081.38
2022-08-12T18:59:59.981Z,98098.50
2022-08-12T19:02:32.110Z,98097.97
2022-08-12T19:04:59.033Z,98082.31
2022-08-12T19:07:29.796Z,98081.75
2022-08-12T19:10:13.990Z,98110.13
2022-08-12T19:13:00.273Z,98113.16
2022-08-12T19:15:30.086Z,98110.69
2022-08-12T19:18:02.553Z,98074.88
2022-08-12T19:20:30.628Z,98109.03
2022-08-12T19:23:02.342Z,98091.38
2022-08-12T19:26:01.641Z,98120.78
2022-08-12T19:28:29.494Z,98099.13
2022-08-12T19:31:15.586Z,98096.84
2022-08-12T19:34:00.909Z,98104.63
2022-08-12T19:36:34.713Z,98107.44
2022-08-12T19:39:02.944Z,98095.66
2022-08-12T19:42:01.426Z,98133.13
2022-08-12T19:44:29.502Z,98108.09
2022-08-12T19:46:56.536Z,98132.34
2022-08-12T19:49:23.352Z,98111.72
2022-08-12T19:51:51.159Z,98111.78
2022-08-12T19:54:30.236Z,98124.47
2022-08-12T19:56:58.554Z,98115.41
2022-08-12T19:59:43.563Z,98123.41
2022-08-12T20:02:34.660Z,98102.50
2022-08-12T20:06:03.928Z,98098.41
2022-08-12T20:07:59.045Z,98130.63
2022-08-12T20:10:35.496Z,98124.31
2022-08-12T20:13:19.294Z,98076.41
2022-08-12T20:15:59.653Z,98101.25
2022-08-12T20:18:44.173Z,98097.97
2022-08-12T20:21:15.991Z,98098.00
2022-08-12T20:23:59.868Z,98110.13
2022-08-12T20:26:27.949Z,98107.06
2022-08-12T20:28:55.544Z,98085.88
2022-08-12T20:31:22.304Z,98093.56
2022-08-12T20:33:56.359Z,98111.47
2022-08-12T20:36:40.950Z,98106.53
2022-08-12T20:39:35.850Z,98104.88
2022-08-12T20:42:07.406Z,98102.94
2022-08-12T20:44:40.532Z,98114.56
2022-08-12T20:47:19.708Z,98088.19
2022-08-12T20:49:55.429Z,98080.19
2022-08-12T20:52:29.835Z,98092.59
2022-08-12T20:54:58.021Z,98110.22
2022-08-12T20:57:38.250Z,98098.97
2022-08-12T21:00:16.335Z,98105.81
2022-08-12T21:02:49.836Z,98087.09
2022-08-12T21:06:09.616Z,98076.94
2022-08-12T21:08:27.369Z,98087.69
2022-08-12T21:10:59.117Z,98083.56
2022-08-12T21:13:27.147Z,98103.97
2022-08-12T21:15:59.751Z,98094.09
2022-08-12T21:18:28.344Z,98112.53
2022-08-12T21:20:58.959Z,98086.63
2022-08-12T21:23:30.551Z,98099.34
2022-08-12T21:26:01.595Z,98100.44
2022-08-12T21:28:31.093Z,98097.13
2022-08-12T21:32:35.032Z,98116.97
2022-08-12T21:34:07.317Z,98090.50
2022-08-12T21:36:39.844Z,98071.81
2022-08-12T21:39:20.583Z,98103.78
2022-08-12T21:41:53.317Z,98100.19
2022-08-12T21:45:46.019Z,98098.03
2022-08-12T21:47:20.984Z,98081.78
2022-08-12T21:50:03.393Z,98078.22
2022-08-12T21:52:40.412Z,98108.28
2022-08-12T21:55:18.958Z,98087.06
2022-08-12T21:57:53.360Z,98097.28
2022-08-12T22:00:24.003Z,98105.03
2022-08-12T22:04:01.626Z,98095.66
2022-08-12T22:06:26.233Z,98087.91
2022-08-12T22:09:02.081Z,98117.16
2022-08-12T22:11:41.694Z,98109.97
2022-08-12T22:14:21.849Z,98094.00
2022-08-12T22:16:52.517Z,98101.69
2022-08-12T22:19:22.975Z,98104.72
2022-08-12T22:21:53.565Z,98071.66
2022-08-12T22:24:26.716Z,98093.44
2022-08-12T22:27:08.210Z,98110.78
2022-08-12T22:30:16.090Z,98080.78
2022-08-12T22:32:51.598Z,98065.84
2022-08-12T22:35:55.237Z,98057.88
2022-08-12T22:38:29.361Z,98069.16
2022-08-12T22:41:00.548Z,98076.88
2022-08-12T22:43:58.707Z,98050.38
2022-08-12T22:46:52.873Z,98089.00
2022-08-12T22:49:48.804Z,98073.88
2022-08-12T22:52:13.207Z,98058.09
2022-08-12T22:54:46.397Z,98073.28
2022-08-12T22:57:49.401Z,98086.75
2022-08-12T23:00:23.583Z,98056.72
2022-08-12T23:02:51.655Z,98039.34
2022-08-12T23:05:23.812Z,98059.19
2022-08-12T23:08:13.778Z,98042.34
2022-08-12T23:10:44.993Z,98036.28
2022-08-12T23:13:30.197Z,98060.81
2022-08-12T23:16:28.362Z,98050.88
2022-08-12T23:19:38.319Z,98072.66
2022-08-12T23:22:36.676Z,98047.81
2022-08-12T23:24:53.701Z,98052.22
2022-08-12T23:27:44.102Z,98034.00
2022-08-12T23:30:25.018Z,98033.47
2022-08-12T23:32:59.535Z,98063.53
2022-08-12T23:35:46.065Z,98037.63
2022-08-12T23:38:28.956Z,98035.41
2022-08-12T23:40:58.315Z,98021.03
2022-08-12T23:43:25.660Z,98040.28
2022-08-12T23:46:00.890Z,98054.09
2022-08-12T23:48:31.344Z,98011.59
2022-08-12T23:51:01.289Z,98027.06
2022-08-12T23:53:32.273Z,98020.44
2022-08-12T23:55:59.609Z,98011.13
2022-08-12T23:58:28.432Z,98028.75
